CheckWX is a tool to help pilots better visualize weather data.  It is not intended as a substitute for an official pre-flight weather briefing.

03:37:36 UTC

KLSE METAR
La Crosse Regional Airport
La Crosse, Wisconsin, USA
Current

45 mins ago

KLSE 130253Z 32011KT 8SM OVC014 M05/M08 A3003 RMK AO2 SLP186 T10501083 50003
Observed
Dec-13 @ 02:53 UTC
Wind
  • 320° at 11 KTS
Visibility
8 SM
Flight Rules
MVFR
Cloud Levels
  • Overcast at 1,400' AGL
Temperature
-5°C / 23°F
Dewpoint
-8°C / 18°F
Humidity
80%
Altimeter
30.03" Hg
Pressure
1016.92 hPa
Previous

1 hour ago

KLSE 130213Z 32011KT 8SM BKN015 OVC022 M04/M08 A3003 RMK AO2 T10441078
Observed
Dec-13 @ 02:13 UTC
Wind
  • 320° at 11 KTS
Visibility
8 SM
Flight Rules
MVFR
Cloud Levels
  • Broken at 1,500' AGL
  • Overcast at 2,200' AGL
Temperature
-4°C / 25°F
Dewpoint
-8°C / 18°F
Humidity
74%
Altimeter
30.03" Hg
Pressure
1016.92 hPa
Previous

2 hours ago

KLSE 130153Z 32011KT 7SM BKN013 OVC022 M04/M07 A3003 RMK AO2 SLP184 T10391067
Observed
Dec-13 @ 01:53 UTC
Wind
  • 320° at 11 KTS
Visibility
7 SM
Flight Rules
MVFR
Cloud Levels
  • Broken at 1,300' AGL
  • Overcast at 2,200' AGL
Temperature
-4°C / 25°F
Dewpoint
-7°C / 19°F
Humidity
80%
Altimeter
30.03" Hg
Pressure
1016.92 hPa